Terminal Aerodrome Forecast
Issued by NWS

Home | Current Version | Previous Version | Text Only | Print | Product List | Glossary On
Versions: 1 2 3 4 5 6 7 8 9 10 11 12 13 14 15 16 17
000
FTUS45 KTFX 040000 AAA
TAFGTF
TAF AMD
KGTF 040020Z 0400/0424 22006KT P6SM FEW150
      TEMPO 0400/0402 33012G18KT
     FM040700 24005KT P6SM BKN070
     FM041200 21008KT P6SM SCT150=

USA.gov is the U.S. government's official web portal to all federal, state and local government web resources and services.